createdAt,value
2019-03-23T00:02:08.308Z,78.67
2019-03-23T00:04:40.688Z,85.80
2019-03-23T00:07:14.071Z,80.55
2019-03-23T00:09:46.903Z,86.28
2019-03-23T00:12:19.297Z,100.00
2019-03-23T00:14:51.887Z,86.82
2019-03-23T00:17:24.419Z,79.80
2019-03-23T00:19:56.768Z,84.47
2019-03-23T00:22:29.751Z,86.53
2019-03-23T00:25:01.871Z,92.12
2019-03-23T00:27:34.627Z,94.42
2019-03-23T00:30:10.670Z,94.60
2019-03-23T00:32:44.459Z,95.65
2019-03-23T00:35:17.074Z,102.35
2019-03-23T00:37:49.779Z,110.72
2019-03-23T00:40:23.291Z,122.55
2019-03-23T00:42:55.981Z,125.50
2019-03-23T00:45:41.485Z,125.87
2019-03-23T00:48:14.129Z,128.07
2019-03-23T00:50:46.983Z,126.90
2019-03-23T00:53:19.363Z,136.37
2019-03-23T00:55:52.139Z,147.68
2019-03-23T00:58:24.787Z,137.62
2019-03-23T01:00:57.850Z,133.30
2019-03-23T01:03:30.171Z,136.72
2019-03-23T01:06:02.784Z,134.05
2019-03-23T01:08:35.552Z,120.25
2019-03-23T01:11:08.117Z,124.25
2019-03-23T01:13:40.555Z,132.90
2019-03-23T01:16:12.897Z,138.75
2019-03-23T01:18:45.679Z,129.72
2019-03-23T01:21:18.029Z,133.15
2019-03-23T01:23:51.016Z,120.75
2019-03-23T01:26:23.495Z,110.10
2019-03-23T01:28:56.093Z,105.03
2019-03-23T01:31:28.663Z,110.83
2019-03-23T01:34:01.062Z,124.92
2019-03-23T01:36:33.895Z,129.23
2019-03-23T01:39:07.716Z,123.75
2019-03-23T01:41:40.688Z,114.20
2019-03-23T01:44:15.942Z,104.97
2019-03-23T01:46:48.922Z,101.15
2019-03-23T01:49:21.901Z,98.45
2019-03-23T01:51:54.493Z,100.55
2019-03-23T01:54:27.058Z,84.55
2019-03-23T01:56:59.590Z,83.47
2019-03-23T01:59:32.174Z,80.10
2019-03-23T02:02:04.569Z,81.32
2019-03-23T02:04:37.273Z,78.83
2019-03-23T02:07:13.704Z,75.75
2019-03-23T02:09:43.310Z,72.32
2019-03-23T02:12:15.741Z,74.90
2019-03-23T02:14:48.419Z,78.60
2019-03-23T02:17:20.951Z,78.50
2019-03-23T02:19:54.481Z,76.62
2019-03-23T02:22:27.048Z,77.65
2019-03-23T02:24:59.484Z,77.08
2019-03-23T02:27:31.925Z,75.20
2019-03-23T02:30:04.318Z,71.70
2019-03-23T02:32:36.733Z,71.77
2019-03-23T02:35:11.010Z,67.12
2019-03-23T02:37:43.584Z,66.22
2019-03-23T02:40:16.425Z,67.80
2019-03-23T02:42:48.981Z,60.48
2019-03-23T02:45:21.436Z,66.05
2019-03-23T02:47:53.954Z,66.17
2019-03-23T02:50:26.537Z,62.20
2019-03-23T02:52:58.879Z,58.68
2019-03-23T02:55:31.714Z,62.35
2019-03-23T02:58:04.168Z,59.73
2019-03-23T03:00:36.571Z,62.25
2019-03-23T03:03:08.984Z,61.68
2019-03-23T03:05:41.461Z,59.20
2019-03-23T03:08:17.140Z,52.85
2019-03-23T03:10:49.746Z,47.00
2019-03-23T03:13:22.037Z,49.53
2019-03-23T03:15:54.686Z,48.95
2019-03-23T03:18:27.084Z,49.93
2019-03-23T03:20:59.454Z,45.48
2019-03-23T03:23:31.855Z,46.05
2019-03-23T03:26:04.863Z,44.73
2019-03-23T03:28:37.363Z,43.75
2019-03-23T03:31:10.297Z,46.15
2019-03-23T03:33:42.639Z,43.87
2019-03-23T03:36:15.318Z,50.58
2019-03-23T03:38:47.815Z,50.78
2019-03-23T03:41:20.555Z,51.63
2019-03-23T03:43:53.040Z,53.00
2019-03-23T03:46:25.834Z,51.42
2019-03-23T03:49:11.452Z,49.23
2019-03-23T03:51:32.192Z,50.40
2019-03-23T03:54:04.353Z,51.30
2019-03-23T03:56:37.150Z,48.85
2019-03-23T03:59:09.420Z,42.20
2019-03-23T04:01:42.151Z,46.05
2019-03-23T04:04:14.563Z,52.98
2019-03-23T04:06:47.000Z,49.53
2019-03-23T04:09:20.014Z,49.58
2019-03-23T04:11:52.706Z,50.50
2019-03-23T04:14:25.344Z,47.30
2019-03-23T04:16:57.775Z,50.78
2019-03-23T04:19:30.430Z,49.15
2019-03-23T04:22:02.559Z,47.53
2019-03-23T04:24:35.409Z,46.00
2019-03-23T04:27:08.409Z,47.73
2019-03-23T04:29:41.340Z,45.80
2019-03-23T04:32:13.851Z,47.65
2019-03-23T04:34:46.994Z,49.38
2019-03-23T04:37:19.759Z,49.18
2019-03-23T04:39:52.165Z,46.85
2019-03-23T04:42:24.579Z,47.93
2019-03-23T04:44:56.890Z,50.70
2019-03-23T04:47:30.661Z,48.73
2019-03-23T04:50:02.808Z,52.00
2019-03-23T04:52:35.203Z,56.37
2019-03-23T04:55:09.819Z,52.43
2019-03-23T04:57:43.331Z,56.00
2019-03-23T05:00:18.225Z,56.35
2019-03-23T05:02:50.984Z,60.28
2019-03-23T05:05:23.581Z,59.27
2019-03-23T05:07:56.508Z,60.63
2019-03-23T05:10:29.517Z,61.70
2019-03-23T05:13:02.045Z,81.28
2019-03-23T05:15:34.426Z,78.60
2019-03-23T05:18:06.797Z,72.30
2019-03-23T05:20:39.243Z,70.00
2019-03-23T05:23:12.339Z,72.12
2019-03-23T05:25:47.084Z,76.15
2019-03-23T05:28:19.916Z,79.50
2019-03-23T05:30:52.488Z,78.97
2019-03-23T05:33:24.955Z,82.20
2019-03-23T05:35:57.181Z,79.42
2019-03-23T05:38:29.760Z,82.02
2019-03-23T05:41:02.001Z,79.92
2019-03-23T05:43:34.489Z,77.95
2019-03-23T05:46:07.224Z,76.15
2019-03-23T05:48:39.666Z,74.58
2019-03-23T05:51:12.171Z,72.90
2019-03-23T05:53:44.909Z,76.82
2019-03-23T05:56:17.557Z,74.65
2019-03-23T05:58:50.236Z,75.55
2019-03-23T06:01:23.650Z,74.32
2019-03-23T06:03:56.325Z,72.08
2019-03-23T06:06:28.632Z,92.95
2019-03-23T06:09:00.925Z,75.80
2019-03-23T06:11:34.553Z,78.12
2019-03-23T06:14:07.152Z,77.32
2019-03-23T06:16:39.588Z,73.60
2019-03-23T06:19:12.814Z,74.85
2019-03-23T06:21:45.692Z,72.08
2019-03-23T06:24:18.919Z,74.30
2019-03-23T06:26:51.909Z,72.55
2019-03-23T06:29:24.799Z,72.95
2019-03-23T06:31:57.487Z,71.62
2019-03-23T06:34:30.202Z,67.40
2019-03-23T06:37:02.841Z,67.80
2019-03-23T06:39:35.596Z,71.22
2019-03-23T06:42:07.901Z,69.37
2019-03-23T06:44:40.420Z,67.17
2019-03-23T06:47:13.141Z,67.85
2019-03-23T06:49:46.007Z,64.53
2019-03-23T06:52:18.603Z,67.62
2019-03-23T06:54:51.190Z,65.85
2019-03-23T06:57:23.664Z,65.47
2019-03-23T06:59:56.103Z,62.60
2019-03-23T07:02:28.704Z,62.27
2019-03-23T07:05:01.331Z,66.40
2019-03-23T07:07:33.803Z,65.32
2019-03-23T07:10:08.698Z,64.15
2019-03-23T07:12:41.497Z,61.05
2019-03-23T07:15:19.995Z,63.05
2019-03-23T07:17:48.628Z,63.08
2019-03-23T07:20:20.987Z,60.83
2019-03-23T07:22:54.933Z,81.22
2019-03-23T07:25:27.382Z,60.23
2019-03-23T07:28:00.965Z,60.30
2019-03-23T07:30:33.454Z,59.35
2019-03-23T07:33:06.098Z,60.10
2019-03-23T07:35:38.938Z,59.75
2019-03-23T07:38:11.617Z,58.48
2019-03-23T07:40:44.004Z,60.63
2019-03-23T07:43:16.666Z,58.85
2019-03-23T07:45:49.001Z,64.45
2019-03-23T07:48:21.862Z,51.10
2019-03-23T07:50:54.334Z,41.30
2019-03-23T07:53:26.913Z,45.88
2019-03-23T07:55:59.353Z,42.45
2019-03-23T07:58:31.996Z,41.75
2019-03-23T08:01:05.037Z,43.75
2019-03-23T08:03:37.533Z,45.45
2019-03-23T08:06:09.987Z,46.70
2019-03-23T08:08:45.507Z,48.28
2019-03-23T08:11:17.955Z,47.58
2019-03-23T08:13:50.776Z,46.23
2019-03-23T08:16:23.246Z,46.00
2019-03-23T08:18:55.986Z,46.63
2019-03-23T08:21:28.630Z,45.60
2019-03-23T08:24:01.510Z,47.58
2019-03-23T08:26:34.042Z,46.40
2019-03-23T08:29:06.474Z,48.13
2019-03-23T08:31:39.043Z,47.70
2019-03-23T08:34:11.623Z,50.48
2019-03-23T08:36:44.006Z,49.33
2019-03-23T08:39:16.668Z,48.95
2019-03-23T08:41:49.190Z,50.63
2019-03-23T08:44:21.724Z,46.77
2019-03-23T08:46:54.063Z,53.30
2019-03-23T08:49:28.602Z,47.88
2019-03-23T08:52:00.829Z,45.15
2019-03-23T08:54:33.467Z,46.42
2019-03-23T08:57:05.743Z,46.10
2019-03-23T08:59:38.120Z,43.98
2019-03-23T09:02:10.471Z,44.95
2019-03-23T09:04:43.137Z,46.60
2019-03-23T09:07:15.767Z,47.48
2019-03-23T09:09:58.627Z,48.10
2019-03-23T09:15:24.788Z,54.00
2019-03-23T09:17:57.493Z,53.25
2019-03-23T09:20:30.213Z,53.28
2019-03-23T09:23:02.839Z,52.98
2019-03-23T09:25:35.496Z,52.38
2019-03-23T09:28:07.992Z,55.35
2019-03-23T09:30:40.474Z,54.00
2019-03-23T09:33:12.805Z,52.30
2019-03-23T09:35:45.062Z,50.95
2019-03-23T09:38:18.425Z,52.23
2019-03-23T09:40:50.872Z,51.98
2019-03-23T09:43:23.235Z,51.45
2019-03-23T09:45:56.092Z,52.78
2019-03-23T09:48:28.574Z,52.27
2019-03-23T09:51:01.193Z,52.10
2019-03-23T09:53:33.555Z,52.93
2019-03-23T09:56:06.506Z,53.23
2019-03-23T09:58:38.610Z,54.85
2019-03-23T10:01:11.125Z,54.33
2019-03-23T10:03:43.262Z,53.40
2019-03-23T10:06:16.050Z,53.08
2019-03-23T10:08:48.538Z,53.78
2019-03-23T10:11:21.041Z,54.35
2019-03-23T10:13:53.348Z,55.28
2019-03-23T10:16:25.751Z,53.45
2019-03-23T10:18:58.439Z,53.55
2019-03-23T10:21:31.600Z,55.12
2019-03-23T10:24:04.030Z,53.58
2019-03-23T10:26:36.546Z,53.78
2019-03-23T10:29:08.890Z,53.83
2019-03-23T10:31:41.189Z,53.73
2019-03-23T10:34:13.469Z,53.68
2019-03-23T10:36:45.810Z,55.67
2019-03-23T10:39:19.108Z,54.88
2019-03-23T10:41:51.782Z,54.58
2019-03-23T10:44:24.134Z,55.80
2019-03-23T10:46:56.634Z,56.48
2019-03-23T10:49:28.991Z,62.40
2019-03-23T10:52:02.982Z,56.10
2019-03-23T10:54:35.462Z,55.80
2019-03-23T10:57:08.035Z,59.23
2019-03-23T10:59:40.613Z,58.35
2019-03-23T11:02:13.213Z,60.25
2019-03-23T11:04:45.619Z,62.50
2019-03-23T11:07:18.368Z,56.90
2019-03-23T11:09:50.808Z,55.95
2019-03-23T11:12:24.811Z,66.28
2019-03-23T11:14:57.180Z,65.67
2019-03-23T11:17:30.008Z,63.55
2019-03-23T11:20:02.435Z,60.83
2019-03-23T11:22:35.138Z,56.85
2019-03-23T11:25:09.481Z,71.67
2019-03-23T11:27:42.147Z,62.13
2019-03-23T11:30:16.276Z,86.37
2019-03-23T11:32:48.605Z,85.87
2019-03-23T11:35:21.051Z,75.22
2019-03-23T11:37:54.263Z,90.15
2019-03-23T11:40:27.162Z,71.30
2019-03-23T11:42:59.671Z,76.55
2019-03-23T11:45:32.160Z,74.97
2019-03-23T11:48:04.902Z,74.97
2019-03-23T11:50:37.236Z,73.07
2019-03-23T11:53:10.193Z,75.92
2019-03-23T11:55:43.116Z,79.87
2019-03-23T11:58:15.570Z,74.50
2019-03-23T12:00:48.574Z,72.20
2019-03-23T12:03:21.339Z,78.65
2019-03-23T12:05:53.947Z,77.15
2019-03-23T12:08:27.625Z,71.20
2019-03-23T12:11:03.071Z,69.70
2019-03-23T12:13:33.860Z,79.67
2019-03-23T12:16:06.764Z,71.15
2019-03-23T12:18:39.364Z,73.60
2019-03-23T12:21:11.829Z,78.05
2019-03-23T12:23:44.603Z,73.40
2019-03-23T12:26:16.969Z,82.60
2019-03-23T12:28:49.896Z,77.53
2019-03-23T12:31:22.687Z,87.35
2019-03-23T12:33:55.336Z,88.62
2019-03-23T12:36:27.931Z,91.15
2019-03-23T12:39:00.577Z,91.50
2019-03-23T12:41:34.459Z,96.67
2019-03-23T12:44:06.951Z,106.83
2019-03-23T12:46:47.926Z,99.15
2019-03-23T12:49:13.102Z,102.47
2019-03-23T12:51:45.329Z,92.15
2019-03-23T12:54:17.947Z,89.92
2019-03-23T12:56:50.629Z,106.75
2019-03-23T12:59:23.189Z,91.95
2019-03-23T13:01:55.581Z,117.35
2019-03-23T13:04:28.079Z,105.92
2019-03-23T13:07:00.560Z,100.02
2019-03-23T13:09:32.920Z,102.85
2019-03-23T13:12:05.902Z,91.00
2019-03-23T13:14:38.188Z,97.70
2019-03-23T13:17:10.855Z,92.50
2019-03-23T13:19:43.520Z,96.02
2019-03-23T13:22:15.899Z,91.85
2019-03-23T13:24:48.380Z,89.28
2019-03-23T13:27:20.731Z,79.58
2019-03-23T13:29:53.312Z,81.30
2019-03-23T13:32:25.926Z,80.10
2019-03-23T13:34:58.454Z,75.60
2019-03-23T13:37:30.905Z,79.82
2019-03-23T13:40:03.692Z,80.25
2019-03-23T13:42:36.299Z,88.58
2019-03-23T13:45:12.159Z,85.20
2019-03-23T13:47:45.068Z,87.30
2019-03-23T13:50:19.741Z,92.22
2019-03-23T13:52:52.245Z,91.60
2019-03-23T13:55:27.052Z,92.30
2019-03-23T13:58:02.228Z,105.27
2019-03-23T14:00:34.841Z,117.60
2019-03-23T14:03:09.144Z,110.12
2019-03-23T14:05:41.844Z,112.20
2019-03-23T14:08:14.227Z,124.87
2019-03-23T14:10:46.402Z,126.20
2019-03-23T14:13:19.090Z,119.60
2019-03-23T14:15:51.699Z,117.40
2019-03-23T14:18:24.985Z,117.28
2019-03-23T14:20:57.825Z,114.85
2019-03-23T14:23:30.192Z,109.37
2019-03-23T14:26:02.694Z,115.28
2019-03-23T14:28:35.022Z,118.02
2019-03-23T14:31:07.684Z,112.47
2019-03-23T14:33:40.288Z,100.97
2019-03-23T14:36:14.048Z,115.00
2019-03-23T14:38:46.492Z,110.83
2019-03-23T14:41:19.801Z,105.20
2019-03-23T14:43:52.201Z,112.57
2019-03-23T14:46:24.638Z,110.52
2019-03-23T14:49:01.683Z,115.32
2019-03-23T14:51:30.979Z,112.77
2019-03-23T14:54:03.843Z,119.15
2019-03-23T14:56:37.140Z,119.13
2019-03-23T14:59:09.576Z,111.90
2019-03-23T15:01:42.209Z,111.42
2019-03-23T15:04:14.705Z,117.10
2019-03-23T15:06:47.081Z,110.48
2019-03-23T15:09:19.910Z,116.90
2019-03-23T15:11:52.355Z,112.25
2019-03-23T15:14:25.976Z,112.85
2019-03-23T15:16:59.313Z,117.70
2019-03-23T15:19:31.655Z,107.03
2019-03-23T15:22:04.159Z,127.90
2019-03-23T15:24:36.589Z,120.57
2019-03-23T15:27:09.432Z,109.85
2019-03-23T15:29:41.907Z,111.88
2019-03-23T15:32:14.542Z,114.95
2019-03-23T15:34:47.104Z,112.32
2019-03-23T15:37:19.693Z,115.35
2019-03-23T15:39:52.025Z,106.92
2019-03-23T15:42:25.178Z,111.62
2019-03-23T15:44:57.943Z,111.57
2019-03-23T15:47:30.627Z,99.30
2019-03-23T15:50:03.000Z,88.03
2019-03-23T15:52:35.913Z,93.35
2019-03-23T15:55:09.286Z,95.03
2019-03-23T15:57:41.546Z,82.22
2019-03-23T16:00:15.048Z,75.70
2019-03-23T16:02:47.363Z,77.15
2019-03-23T16:05:19.771Z,76.28
2019-03-23T16:07:52.447Z,74.50
2019-03-23T16:10:24.836Z,70.22
2019-03-23T16:12:57.311Z,74.12
2019-03-23T16:15:29.815Z,81.17
2019-03-23T16:18:02.456Z,80.55
2019-03-23T16:20:34.917Z,76.33
2019-03-23T16:23:07.884Z,83.52
2019-03-23T16:25:40.380Z,96.20
2019-03-23T16:28:12.867Z,88.05
2019-03-23T16:30:45.873Z,97.78
2019-03-23T16:33:18.356Z,90.65
2019-03-23T16:35:51.075Z,94.70
2019-03-23T16:38:23.406Z,79.97
2019-03-23T16:40:56.269Z,88.92
2019-03-23T16:43:28.599Z,89.87
2019-03-23T16:46:01.317Z,89.67
2019-03-23T16:48:33.708Z,87.67
2019-03-23T16:51:06.247Z,84.45
2019-03-23T16:53:38.550Z,83.45
2019-03-23T16:56:11.464Z,94.45
2019-03-23T16:58:44.285Z,81.55
2019-03-23T17:01:16.936Z,74.07
2019-03-23T17:03:49.286Z,83.52
2019-03-23T17:06:22.038Z,77.42
2019-03-23T17:08:54.821Z,80.42
2019-03-23T17:11:27.620Z,75.55
2019-03-23T17:14:00.363Z,69.32
2019-03-23T17:16:32.827Z,71.45
2019-03-23T17:19:05.484Z,70.90
2019-03-23T17:21:38.011Z,72.17
2019-03-23T17:24:10.647Z,70.97
2019-03-23T17:26:43.415Z,64.27
2019-03-23T17:29:15.801Z,60.45
2019-03-23T17:31:49.338Z,63.80
2019-03-23T17:34:21.766Z,62.83
2019-03-23T17:36:54.308Z,65.50
2019-03-23T17:39:26.654Z,67.80
2019-03-23T17:41:59.471Z,55.48
2019-03-23T17:44:32.264Z,64.95
2019-03-23T17:47:04.818Z,64.62
2019-03-23T17:49:37.215Z,61.00
2019-03-23T17:52:10.103Z,66.00
2019-03-23T17:54:43.894Z,69.58
2019-03-23T17:57:16.613Z,60.08
2019-03-23T17:59:50.793Z,61.50
2019-03-23T18:02:23.346Z,66.40
2019-03-23T18:04:55.686Z,66.00
2019-03-23T18:07:28.517Z,64.97
2019-03-23T18:10:01.211Z,63.55
2019-03-23T18:12:33.737Z,67.12
2019-03-23T18:15:08.761Z,62.53
2019-03-23T18:17:41.405Z,64.92
2019-03-23T18:20:14.342Z,63.73
2019-03-23T18:22:47.104Z,68.10
2019-03-23T18:25:19.661Z,71.28
2019-03-23T18:27:52.272Z,65.12
2019-03-23T18:30:26.899Z,63.10
2019-03-23T18:32:59.344Z,64.42
2019-03-23T18:35:31.898Z,63.60
2019-03-23T18:38:05.064Z,68.95
2019-03-23T18:40:39.402Z,65.97
2019-03-23T18:43:11.759Z,66.47
2019-03-23T18:45:44.607Z,66.20
2019-03-23T18:48:17.203Z,64.82
2019-03-23T18:50:49.566Z,68.52
2019-03-23T18:53:24.029Z,63.13
2019-03-23T18:55:56.724Z,64.30
2019-03-23T18:58:29.246Z,62.70
2019-03-23T19:01:01.682Z,62.05
2019-03-23T19:03:34.270Z,60.83
2019-03-23T19:06:06.912Z,61.92
2019-03-23T19:08:39.026Z,63.25
2019-03-23T19:11:11.615Z,60.33
2019-03-23T19:13:44.259Z,58.90
2019-03-23T19:16:16.817Z,57.90
2019-03-23T19:18:49.386Z,60.73
2019-03-23T19:21:21.823Z,61.42
2019-03-23T19:23:54.340Z,65.65
2019-03-23T19:26:27.032Z,63.15
2019-03-23T19:28:59.644Z,66.15
2019-03-23T19:31:32.626Z,58.20
2019-03-23T19:34:05.152Z,62.33
2019-03-23T19:36:37.728Z,63.28
2019-03-23T19:39:10.632Z,64.05
2019-03-23T19:41:42.963Z,64.87
2019-03-23T19:44:15.301Z,59.75
2019-03-23T19:46:47.940Z,61.80
2019-03-23T19:49:20.296Z,66.90
2019-03-23T19:51:52.790Z,66.30
2019-03-23T19:54:25.202Z,63.08
2019-03-23T19:56:58.062Z,61.40
2019-03-23T19:59:30.392Z,63.13
2019-03-23T20:02:02.843Z,65.40
2019-03-23T20:04:35.064Z,64.03
2019-03-23T20:07:07.489Z,67.42
2019-03-23T20:09:40.093Z,67.35
2019-03-23T20:12:14.286Z,67.15
2019-03-23T20:14:46.714Z,67.60
2019-03-23T20:17:19.301Z,68.42
2019-03-23T20:19:51.694Z,65.60
2019-03-23T20:22:24.346Z,66.30
2019-03-23T20:24:56.843Z,63.68
2019-03-23T20:27:29.649Z,67.15
2019-03-23T20:30:02.339Z,67.53
2019-03-23T20:32:35.299Z,64.10
2019-03-23T20:35:09.293Z,67.87
2019-03-23T20:37:41.674Z,64.03
2019-03-23T20:40:15.155Z,62.90
2019-03-23T20:42:47.658Z,65.67
2019-03-23T20:45:22.395Z,63.50
2019-03-23T20:47:54.932Z,66.60
2019-03-23T20:50:27.380Z,66.12
2019-03-23T20:52:59.875Z,65.72
2019-03-23T20:55:33.391Z,70.62
2019-03-23T20:58:06.184Z,66.85
2019-03-23T21:00:38.843Z,66.28
2019-03-23T21:03:11.420Z,65.83
2019-03-23T21:05:43.858Z,63.58
2019-03-23T21:08:16.234Z,61.50
2019-03-23T21:10:48.720Z,67.00
2019-03-23T21:13:21.325Z,66.53
2019-03-23T21:15:53.827Z,61.37
2019-03-23T21:18:26.248Z,60.78
2019-03-23T21:20:58.415Z,64.65
2019-03-23T21:23:30.752Z,65.12
2019-03-23T21:26:03.397Z,62.58
2019-03-23T21:28:35.920Z,61.58
2019-03-23T21:31:08.527Z,62.35
2019-03-23T21:33:40.912Z,63.55
2019-03-23T21:36:13.557Z,66.10
2019-03-23T21:38:47.315Z,63.55
2019-03-23T21:41:19.738Z,64.35
2019-03-23T21:43:52.070Z,68.15
2019-03-23T21:46:24.320Z,65.75
2019-03-23T21:48:56.981Z,65.52
2019-03-23T21:51:29.457Z,61.28
2019-03-23T21:54:02.164Z,62.95
2019-03-23T21:56:35.052Z,62.88
2019-03-23T21:59:08.739Z,59.83
2019-03-23T22:01:41.236Z,66.77
2019-03-23T22:04:13.886Z,60.48
2019-03-23T22:06:46.110Z,62.50
2019-03-23T22:09:18.490Z,62.73
2019-03-23T22:11:51.052Z,62.98
2019-03-23T22:14:23.618Z,61.60
2019-03-23T22:16:57.125Z,67.65
2019-03-23T22:19:29.841Z,65.87
2019-03-23T22:22:02.274Z,61.73
2019-03-23T22:24:34.878Z,63.02
2019-03-23T22:27:07.262Z,59.95
2019-03-23T22:29:39.743Z,61.00
2019-03-23T22:32:12.265Z,60.25
2019-03-23T22:34:45.048Z,67.55
2019-03-23T22:37:17.290Z,61.95
2019-03-23T22:39:49.771Z,66.65
2019-03-23T22:42:22.330Z,59.30
2019-03-23T22:44:55.073Z,60.23
2019-03-23T22:47:27.402Z,60.03
2019-03-23T22:49:59.901Z,61.85
2019-03-23T22:52:32.249Z,60.48
2019-03-23T22:55:05.057Z,61.30
2019-03-23T22:57:38.653Z,65.70
2019-03-23T23:00:14.707Z,65.57
2019-03-23T23:02:49.048Z,62.83
2019-03-23T23:05:22.416Z,59.30
2019-03-23T23:07:55.070Z,61.15
2019-03-23T23:10:27.561Z,66.12
2019-03-23T23:13:00.116Z,59.20
2019-03-23T23:15:32.777Z,60.55
2019-03-23T23:18:05.574Z,60.92
2019-03-23T23:20:37.916Z,59.05
2019-03-23T23:23:10.567Z,64.45
2019-03-23T23:25:42.970Z,58.75
2019-03-23T23:28:15.635Z,56.85
2019-03-23T23:30:48.128Z,57.58
2019-03-23T23:33:21.340Z,59.60
2019-03-23T23:35:54.399Z,60.20
2019-03-23T23:38:27.053Z,58.80
2019-03-23T23:40:59.583Z,56.30
2019-03-23T23:43:32.586Z,60.45
2019-03-23T23:46:04.914Z,60.17
2019-03-23T23:48:38.082Z,62.23
2019-03-23T23:51:10.599Z,60.00
2019-03-23T23:53:43.045Z,57.33
2019-03-23T23:56:15.509Z,60.80
2019-03-23T23:58:47.953Z,64.80
